Time;durP1;ratioP1;P1;durP2;ratioP2;P2;SDS_P1;SDS_P2;PMS_P1;PMS_P2;Temp;Humidity;BMP_temperature;BMP_pressure;BME280_temperature;BME280_humidity;BME280_pressure;Samples;Min_cycle;Max_cycle;Signal;HPM_P1;HPM_P2
2023/04/22 00:01:53;;;;;;;0.40;0.40;;;11.80;99.90;;;;;;5073537;28;20482;-83
2023/04/22 00:04:20;;;;;;;1.33;0.80;;;11.80;99.90;;;;;;5073994;28;20449;-82
2023/04/22 00:06:48;;;;;;;2.60;0.80;;;11.80;99.90;;;;;;5073736;28;20429;-82
2023/04/22 00:09:15;;;;;;;1.03;1.03;;;11.80;99.90;;;;;;5073879;28;20456;-82
2023/04/22 00:11:41;;;;;;;0.93;0.60;;;11.80;99.90;;;;;;5073564;28;20453;-85
2023/04/22 00:14:08;;;;;;;0.93;0.60;;;11.80;99.90;;;;;;5074078;28;20445;-85
2023/04/22 00:16:35;;;;;;;0.73;0.60;;;11.80;99.90;;;;;;5073810;28;20445;-83
2023/04/22 00:19:01;;;;;;;1.10;0.40;;;11.80;99.90;;;;;;5073747;28;20453;-83
2023/04/22 00:21:28;;;;;;;1.13;0.60;;;11.80;99.90;;;;;;5073831;28;20461;-83
2023/04/22 00:23:56;;;;;;;1.93;0.67;;;11.80;99.90;;;;;;5073734;28;20453;-83
2023/04/22 00:26:23;;;;;;;0.70;0.40;;;11.80;99.90;;;;;;5073477;28;20451;-83
2023/04/22 00:28:50;;;;;;;0.77;0.60;;;11.70;99.90;;;;;;5073571;28;20452;-83
2023/04/22 00:31:17;;;;;;;1.27;0.50;;;11.70;99.90;;;;;;5073573;28;20831;-83
2023/04/22 00:33:44;;;;;;;0.53;0.50;;;11.60;99.90;;;;;;5073437;28;20481;-83
2023/04/22 00:36:10;;;;;;;1.03;0.73;;;11.50;99.90;;;;;;5073509;28;20452;-83
2023/04/22 00:38:37;;;;;;;0.50;0.50;;;11.50;99.90;;;;;;5073488;28;20532;-83
2023/04/22 00:41:07;;;;;;;0.50;0.50;;;11.40;99.90;;;;;;5073619;28;20921;-83
2023/04/22 00:43:34;;;;;;;1.23;0.83;;;11.40;99.90;;;;;;5073135;28;20945;-83
2023/04/22 00:46:01;;;;;;;0.80;0.60;;;11.50;99.90;;;;;;5073401;28;20449;-83
2023/04/22 00:48:29;;;;;;;2.60;1.17;;;11.50;99.90;;;;;;5073344;28;20452;-83
2023/04/22 00:50:56;;;;;;;1.50;0.60;;;11.50;99.90;;;;;;5072997;28;20506;-83
2023/04/22 00:53:22;;;;;;;0.60;0.60;;;11.50;99.90;;;;;;5073254;28;20507;-83
2023/04/22 00:55:50;;;;;;;0.60;0.60;;;11.40;99.90;;;;;;5073001;28;20945;-83
2023/04/22 00:58:20;;;;;;;1.10;0.90;;;11.40;99.90;;;;;;5073302;28;20449;-83
2023/04/22 01:00:46;;;;;;;0.70;0.40;;;11.40;99.90;;;;;;5073087;28;20852;-83
2023/04/22 01:03:13;;;;;;;0.70;0.50;;;11.50;99.90;;;;;;5073481;28;20442;-83
2023/04/22 01:05:41;;;;;;;0.60;0.60;;;11.40;99.90;;;;;;5072998;28;20438;-83
2023/04/22 01:08:08;;;;;;;1.23;0.50;;;11.40;99.90;;;;;;5072907;28;20825;-83
2023/04/22 01:10:35;;;;;;;0.70;0.60;;;11.40;99.90;;;;;;5073037;28;20473;-83
2023/04/22 01:13:02;;;;;;;0.57;0.57;;;11.30;99.90;;;;;;5073064;28;20559;-83
2023/04/22 01:15:30;;;;;;;0.50;0.50;;;11.30;99.90;;;;;;5073085;28;20450;-82
2023/04/22 01:17:57;;;;;;;0.40;0.40;;;11.30;99.90;;;;;;5073082;28;20445;-83
2023/04/22 01:20:28;;;;;;;0.70;0.50;;;11.30;99.90;;;;;;5072889;28;20470;-83
2023/04/22 01:22:57;;;;;;;5.83;0.80;;;11.20;99.90;;;;;;5073134;28;20442;-83
2023/04/22 01:25:25;;;;;;;0.80;0.57;;;11.20;99.90;;;;;;5072742;28;20493;-83
2023/04/22 01:27:53;;;;;;;1.07;0.70;;;11.20;99.90;;;;;;5072688;28;20933;-83
2023/04/22 01:30:20;;;;;;;1.50;0.70;;;11.20;99.90;;;;;;5073172;28;20461;-83
2023/04/22 01:32:47;;;;;;;0.60;0.60;;;11.20;99.90;;;;;;5072635;28;20515;-83
2023/04/22 01:35:14;;;;;;;1.40;0.50;;;11.20;99.90;;;;;;5072986;28;20453;-83
2023/04/22 01:37:41;;;;;;;0.93;0.90;;;11.20;99.90;;;;;;5073598;28;20453;-83
2023/04/22 01:40:10;;;;;;;1.20;1.07;;;11.20;99.90;;;;;;5076634;28;20461;-83
2023/04/22 01:42:38;;;;;;;0.60;0.60;;;11.20;99.90;;;;;;5076924;28;20452;-83
2023/04/22 01:45:06;;;;;;;1.13;0.60;;;11.20;99.90;;;;;;5076442;28;20820;-83
2023/04/22 01:47:33;;;;;;;0.73;0.73;;;11.20;99.90;;;;;;5076602;28;20520;-83
2023/04/22 01:50:00;;;;;;;1.70;0.83;;;11.10;99.90;;;;;;5076421;28;20461;-83
2023/04/22 01:52:27;;;;;;;0.50;0.50;;;11.20;99.90;;;;;;5076249;28;20836;-83
2023/04/22 01:54:54;;;;;;;0.70;0.70;;;11.10;99.90;;;;;;5076504;28;20445;-83
2023/04/22 01:57:20;;;;;;;2.83;0.83;;;11.00;99.90;;;;;;5076114;28;20453;-83
2023/04/22 01:59:49;;;;;;;0.63;0.60;;;10.90;99.90;;;;;;5075798;28;20448;-84
2023/04/22 02:02:15;;;;;;;1.73;0.60;;;10.90;99.90;;;;;;5076329;28;20436;-84
2023/04/22 02:04:42;;;;;;;0.40;0.40;;;10.90;99.90;;;;;;5076749;28;20452;-83
2023/04/22 02:07:09;;;;;;;2.07;1.20;;;10.90;99.90;;;;;;5077372;28;20448;-83
2023/04/22 02:09:35;;;;;;;0.90;0.67;;;10.80;99.90;;;;;;5076999;28;20437;-84
2023/04/22 02:12:02;;;;;;;0.60;0.60;;;10.90;99.90;;;;;;5076644;28;20492;-84
2023/04/22 02:14:29;;;;;;;0.80;0.80;;;10.90;99.90;;;;;;5076321;28;20449;-84
2023/04/22 02:16:57;;;;;;;0.60;0.60;;;11.00;99.90;;;;;;5076112;28;20449;-84
2023/04/22 02:19:24;;;;;;;2.40;0.67;;;11.00;99.90;;;;;;5075928;28;20931;-83
2023/04/22 02:21:51;;;;;;;2.20;1.10;;;11.00;99.90;;;;;;5075753;28;20826;-84
2023/04/22 02:24:18;;;;;;;0.50;0.50;;;10.90;99.90;;;;;;5075732;28;20448;-83
2023/04/22 02:26:44;;;;;;;1.30;0.90;;;10.90;99.90;;;;;;5075792;28;20945;-83
2023/04/22 02:29:11;;;;;;;0.50;0.50;;;10.90;99.90;;;;;;5075881;28;20446;-83
2023/04/22 02:31:38;;;;;;;0.83;0.80;;;10.90;99.90;;;;;;5075764;28;20480;-83
2023/04/22 02:34:06;;;;;;;8.47;0.67;;;10.90;99.90;;;;;;5075906;28;20488;-83
2023/04/22 02:36:33;;;;;;;1.23;1.10;;;10.80;99.90;;;;;;5075756;28;20452;-84
2023/04/22 02:39:00;;;;;;;1.27;1.17;;;10.90;99.90;;;;;;5075619;28;20553;-83
2023/04/22 02:41:27;;;;;;;0.77;0.73;;;10.80;99.90;;;;;;5075606;28;20547;-83
2023/04/22 02:43:54;;;;;;;1.33;0.93;;;10.90;99.90;;;;;;5075287;28;20929;-83
2023/04/22 02:46:21;;;;;;;0.60;0.60;;;10.70;99.90;;;;;;5075518;28;20445;-83
2023/04/22 02:48:48;;;;;;;1.00;0.90;;;10.70;99.90;;;;;;5075040;28;20941;-83
2023/04/22 02:51:16;;;;;;;1.53;0.80;;;10.70;99.90;;;;;;5075092;28;20473;-83
2023/04/22 02:53:43;;;;;;;1.10;0.60;;;10.70;99.90;;;;;;5075009;28;21031;-83
2023/04/22 02:56:09;;;;;;;0.70;0.70;;;10.60;99.90;;;;;;5075258;28;20453;-83
2023/04/22 02:58:36;;;;;;;1.90;0.80;;;10.60;99.90;;;;;;5075017;28;20437;-84
2023/04/22 03:01:03;;;;;;;0.70;0.60;;;10.60;99.90;;;;;;5074850;28;20491;-83
2023/04/22 03:03:30;;;;;;;1.53;1.10;;;10.50;99.90;;;;;;5074931;28;20960;-83
2023/04/22 03:05:57;;;;;;;2.10;0.90;;;10.50;99.90;;;;;;5075229;28;20457;-83
2023/04/22 03:08:25;;;;;;;0.77;0.77;;;10.40;99.90;;;;;;5075105;28;20457;-83
2023/04/22 03:10:52;;;;;;;4.03;0.80;;;10.40;99.90;;;;;;5075050;28;20466;-83
2023/04/22 03:13:19;;;;;;;0.70;0.67;;;10.40;99.90;;;;;;5075024;28;20487;-83
2023/04/22 03:15:45;;;;;;;1.73;0.90;;;10.30;99.90;;;;;;5074694;28;20945;-83
2023/04/22 03:18:12;;;;;;;1.47;1.27;;;10.30;99.90;;;;;;5074895;28;20910;-83
2023/04/22 03:20:39;;;;;;;0.60;0.60;;;10.20;99.90;;;;;;5074807;28;20473;-83
2023/04/22 03:23:06;;;;;;;2.60;1.20;;;10.20;99.90;;;;;;5074952;28;20818;-83
2023/04/22 03:25:35;;;;;;;0.83;0.73;;;10.20;99.90;;;;;;5074822;28;20445;-83
2023/04/22 03:28:01;;;;;;;1.00;0.80;;;10.30;99.90;;;;;;5074457;28;20491;-83
2023/04/22 03:30:28;;;;;;;2.00;1.00;;;10.30;99.90;;;;;;5074697;28;20469;-84
2023/04/22 03:32:56;;;;;;;3.13;1.13;;;10.30;99.90;;;;;;5074719;28;20480;-84
2023/04/22 03:35:22;;;;;;;1.17;1.10;;;10.20;99.90;;;;;;5074291;28;20953;-83
2023/04/22 03:37:49;;;;;;;2.80;1.57;;;10.20;99.90;;;;;;5074753;28;20567;-83
2023/04/22 03:40:16;;;;;;;1.57;1.20;;;10.20;99.90;;;;;;5074467;28;20473;-83
2023/04/22 03:42:44;;;;;;;1.80;1.20;;;10.20;99.90;;;;;;5074514;28;20445;-83
2023/04/22 03:45:11;;;;;;;0.70;0.67;;;10.20;99.90;;;;;;5074414;28;20804;-83
2023/04/22 03:47:38;;;;;;;1.73;1.63;;;10.20;99.90;;;;;;5074357;28;20440;-83
2023/04/22 03:50:05;;;;;;;1.17;0.97;;;10.20;99.90;;;;;;5074247;28;20478;-83
2023/04/22 03:52:32;;;;;;;0.80;0.80;;;10.20;99.90;;;;;;5073981;28;20453;-83
2023/04/22 03:54:59;;;;;;;1.00;0.80;;;10.20;99.90;;;;;;5074344;28;20949;-84
2023/04/22 03:57:26;;;;;;;1.40;1.30;;;10.20;99.90;;;;;;5074032;28;20469;-83
2023/04/22 03:59:54;;;;;;;0.80;0.77;;;10.20;99.90;;;;;;5073699;28;20448;-83
2023/04/22 04:02:20;;;;;;;1.10;0.80;;;10.30;99.90;;;;;;5073855;28;20446;-83
2023/04/22 04:04:47;;;;;;;1.37;0.77;;;10.30;99.90;;;;;;5074039;28;20520;-83
2023/04/22 04:07:14;;;;;;;0.97;0.70;;;10.30;99.90;;;;;;5074019;28;20449;-83
2023/04/22 04:09:41;;;;;;;2.10;0.70;;;10.30;99.90;;;;;;5073992;28;20456;-83
2023/04/22 04:12:07;;;;;;;0.90;0.80;;;10.20;99.90;;;;;;5073954;28;20469;-83
2023/04/22 04:14:34;;;;;;;1.00;0.77;;;10.30;99.90;;;;;;5074022;28;20484;-83
2023/04/22 04:17:03;;;;;;;4.30;0.80;;;10.30;99.90;;;;;;5073804;28;20456;-83
2023/04/22 04:19:30;;;;;;;0.87;0.83;;;10.30;99.90;;;;;;5073841;28;20450;-83
2023/04/22 04:21:56;;;;;;;2.80;1.10;;;10.30;99.90;;;;;;5073395;28;20973;-83
2023/04/22 04:24:23;;;;;;;0.60;0.53;;;10.30;99.90;;;;;;5073872;28;20452;-83
2023/04/22 04:26:50;;;;;;;0.83;0.60;;;10.30;99.90;;;;;;5073389;28;20536;-83
2023/04/22 04:29:20;;;;;;;1.30;0.70;;;10.40;99.90;;;;;;5073667;28;20457;-83
2023/04/22 04:31:47;;;;;;;0.60;0.53;;;10.40;99.90;;;;;;5073239;28;20973;-83
2023/04/22 04:34:15;;;;;;;0.80;0.80;;;10.30;99.90;;;;;;5073203;28;20824;-83
2023/04/22 04:36:42;;;;;;;1.77;0.80;;;10.30;99.90;;;;;;5073627;28;20453;-83
2023/04/22 04:39:08;;;;;;;1.70;1.00;;;10.30;99.90;;;;;;5073224;28;20453;-83
2023/04/22 04:41:37;;;;;;;0.60;0.60;;;10.30;99.90;;;;;;5073488;28;20480;-83
2023/04/22 04:44:04;;;;;;;0.63;0.63;;;10.30;99.90;;;;;;5073583;28;20456;-83
2023/04/22 04:46:31;;;;;;;0.60;0.60;;;10.30;99.90;;;;;;5073974;28;20456;-83
2023/04/22 04:48:58;;;;;;;1.50;0.93;;;10.40;99.90;;;;;;5074260;28;20889;-83
2023/04/22 04:51:26;;;;;;;1.23;0.80;;;10.50;99.90;;;;;;5073818;28;20462;-83
2023/04/22 04:53:53;;;;;;;1.70;1.17;;;10.50;99.90;;;;;;5072993;28;20492;-83
2023/04/22 04:56:20;;;;;;;0.60;0.60;;;10.60;99.90;;;;;;5073356;28;20460;-83
2023/04/22 04:58:46;;;;;;;6.10;0.80;;;10.60;99.90;;;;;;5073317;28;20473;-82
2023/04/22 05:01:13;;;;;;;1.30;0.70;;;10.60;99.90;;;;;;5072878;28;21001;-82
2023/04/22 05:03:40;;;;;;;0.60;0.50;;;10.70;99.90;;;;;;5073216;28;20445;-82
2023/04/22 05:06:07;;;;;;;0.60;0.60;;;10.70;99.90;;;;;;5073220;28;20941;-82
2023/04/22 05:08:35;;;;;;;0.67;0.53;;;10.70;99.90;;;;;;5073227;28;20456;-82
2023/04/22 05:11:02;;;;;;;2.40;0.90;;;10.70;99.90;;;;;;5073163;28;20476;-82
2023/04/22 05:13:29;;;;;;;1.30;0.70;;;10.70;99.90;;;;;;5074870;28;20484;-82
2023/04/22 05:15:56;;;;;;;1.90;1.30;;;10.70;99.90;;;;;;5077232;28;20457;-82
2023/04/22 05:18:22;;;;;;;0.60;0.53;;;10.80;99.90;;;;;;5076918;28;20937;-81
2023/04/22 05:20:49;;;;;;;1.53;0.80;;;10.80;99.90;;;;;;5076846;28;20460;-82
2023/04/22 05:23:16;;;;;;;2.83;1.00;;;10.80;99.90;;;;;;5077093;28;20450;-82
2023/04/22 05:25:44;;;;;;;0.67;0.67;;;10.80;99.90;;;;;;5076752;28;20441;-82
2023/04/22 05:28:11;;;;;;;0.90;0.90;;;10.90;99.90;;;;;;5077011;28;20446;-82
2023/04/22 05:30:38;;;;;;;1.93;0.90;;;11.00;99.90;;;;;;5076924;28;20472;-82
2023/04/22 05:33:04;;;;;;;1.17;0.83;;;11.00;99.90;;;;;;5077096;28;20453;-82
2023/04/22 05:35:31;;;;;;;0.80;0.80;;;11.00;99.90;;;;;;5077082;28;20475;-82
2023/04/22 05:37:58;;;;;;;1.20;1.10;;;11.10;99.90;;;;;;5076824;28;20449;-82
2023/04/22 05:40:25;;;;;;;1.20;1.10;;;11.20;99.90;;;;;;5076677;28;20470;-82
2023/04/22 05:42:53;;;;;;;1.40;0.80;;;11.30;99.90;;;;;;5076515;28;20426;-82
2023/04/22 05:45:19;;;;;;;1.40;1.00;;;11.40;99.90;;;;;;5076645;28;20447;-82
2023/04/22 05:47:46;;;;;;;1.70;1.33;;;11.40;99.90;;;;;;5076631;28;20449;-82
2023/04/22 05:50:13;;;;;;;1.50;0.80;;;11.60;99.90;;;;;;5076181;28;20999;-82
2023/04/22 05:52:40;;;;;;;1.87;0.90;;;11.60;99.90;;;;;;5076773;28;20445;-82
2023/04/22 05:55:08;;;;;;;1.10;0.90;;;11.70;99.90;;;;;;5076358;28;20496;-82
2023/04/22 05:57:34;;;;;;;1.53;0.83;;;11.80;99.90;;;;;;5076411;28;20457;-82
2023/04/22 06:00:03;;;;;;;1.73;1.10;;;12.10;99.90;;;;;;5076121;28;20497;-82
2023/04/22 06:02:30;;;;;;;1.33;1.23;;;12.30;99.90;;;;;;5076532;28;20437;-82
2023/04/22 06:04:57;;;;;;;1.60;1.50;;;12.40;99.90;;;;;;5076299;28;20450;-82
2023/04/22 06:07:24;;;;;;;1.80;1.33;;;12.50;99.90;;;;;;5076263;28;20449;-82
2023/04/22 06:09:50;;;;;;;1.63;0.90;;;12.50;99.90;;;;;;5076155;28;20449;-82
2023/04/22 06:12:18;;;;;;;2.80;1.10;;;12.60;99.90;;;;;;5076195;28;20441;-82
2023/04/22 06:14:45;;;;;;;2.73;1.20;;;12.80;99.90;;;;;;5076109;28;20492;-82
2023/04/22 06:17:13;;;;;;;1.47;1.10;;;13.10;99.90;;;;;;5076116;28;20816;-83
2023/04/22 06:19:40;;;;;;;4.10;1.53;;;13.40;99.90;;;;;;5075976;28;20445;-82
2023/04/22 06:22:07;;;;;;;1.13;1.03;;;13.70;99.90;;;;;;5075564;28;20477;-82
2023/04/22 06:24:33;;;;;;;1.07;0.90;;;13.80;99.90;;;;;;5075399;28;20445;-82
2023/04/22 06:27:01;;;;;;;1.87;0.80;;;13.80;99.90;;;;;;5075913;28;20801;-83
2023/04/22 06:29:27;;;;;;;1.27;1.13;;;14.00;99.90;;;;;;5076184;28;20454;-83
2023/04/22 06:31:54;;;;;;;2.20;1.07;;;13.90;99.90;;;;;;5075772;28;20476;-84
2023/04/22 06:34:23;;;;;;;1.00;0.90;;;14.00;99.90;;;;;;5075756;28;20484;-83
2023/04/22 06:36:50;;;;;;;1.17;1.00;;;14.10;99.90;;;;;;5075737;28;20438;-83
2023/04/22 06:39:16;;;;;;;1.23;1.00;;;14.10;99.90;;;;;;5075680;28;20454;-82
2023/04/22 06:41:44;;;;;;;1.07;1.00;;;14.10;99.90;;;;;;5075564;28;21008;-83
2023/04/22 06:44:11;;;;;;;1.43;0.90;;;14.10;99.90;;;;;;5075657;28;20453;-83
2023/04/22 06:46:38;;;;;;;1.20;0.80;;;14.00;99.90;;;;;;5075609;28;20441;-83
2023/04/22 06:49:05;;;;;;;2.27;1.40;;;14.00;99.90;;;;;;5075220;28;20471;-83
2023/04/22 06:51:33;;;;;;;1.03;0.90;;;13.90;99.90;;;;;;5075079;28;20475;-83
2023/04/22 06:54:00;;;;;;;1.00;0.90;;;13.90;99.90;;;;;;5075545;28;20833;-83
2023/04/22 06:56:26;;;;;;;1.30;0.90;;;13.80;99.90;;;;;;5075402;28;20948;-83
2023/04/22 06:58:53;;;;;;;2.00;1.10;;;13.90;99.90;;;;;;5075041;28;20452;-83
2023/04/22 07:01:20;;;;;;;2.27;1.23;;;13.90;99.90;;;;;;5074808;28;20493;-83
2023/04/22 07:03:47;;;;;;;3.33;1.67;;;14.00;99.90;;;;;;5075284;28;20455;-83
2023/04/22 07:06:13;;;;;;;1.23;1.13;;;14.10;99.90;;;;;;5075197;28;20457;-83
2023/04/22 07:08:41;;;;;;;1.07;1.07;;;14.20;99.90;;;;;;5075368;28;20453;-83
2023/04/22 07:11:09;;;;;;;1.20;0.90;;;14.30;99.90;;;;;;5074886;28;20469;-83
2023/04/22 07:13:36;;;;;;;0.80;0.80;;;14.30;99.90;;;;;;5075117;28;20449;-83
2023/04/22 07:16:03;;;;;;;1.40;1.07;;;14.30;99.90;;;;;;5074609;28;20496;-83
2023/04/22 07:18:29;;;;;;;1.37;1.17;;;14.40;99.90;;;;;;5074776;28;20905;-83
2023/04/22 07:20:56;;;;;;;0.80;0.80;;;14.40;99.90;;;;;;5074621;28;20458;-83
2023/04/22 07:23:23;;;;;;;2.20;0.87;;;14.50;99.90;;;;;;5074564;28;20945;-83
2023/04/22 07:25:51;;;;;;;1.50;1.00;;;14.70;99.90;;;;;;5074492;28;20940;-83
2023/04/22 07:28:18;;;;;;;1.43;1.10;;;14.80;99.90;;;;;;5074883;28;20456;-82
2023/04/22 07:30:45;;;;;;;1.30;1.20;;;15.00;99.90;;;;;;5075182;28;20480;-82
2023/04/22 07:33:12;;;;;;;1.37;1.10;;;15.10;99.90;;;;;;5075128;28;20445;-82
2023/04/22 07:35:38;;;;;;;1.20;0.90;;;15.20;99.90;;;;;;5073997;28;20493;-82
2023/04/22 07:38:05;;;;;;;0.80;0.80;;;15.50;99.90;;;;;;5074385;28;20460;-83
2023/04/22 07:40:32;;;;;;;1.10;0.60;;;15.70;99.90;;;;;;5074356;28;20476;-83
2023/04/22 07:43:00;;;;;;;1.67;1.20;;;15.70;99.90;;;;;;5074210;28;20461;-83
2023/04/22 07:45:27;;;;;;;1.23;1.13;;;15.90;99.90;;;;;;5074115;28;20442;-83
2023/04/22 07:47:54;;;;;;;1.63;1.10;;;16.20;99.90;;;;;;5074423;28;20483;-83
2023/04/22 07:50:21;;;;;;;0.87;0.80;;;16.30;99.90;;;;;;5074123;28;20472;-83
2023/04/22 07:52:47;;;;;;;1.67;0.90;;;16.40;99.90;;;;;;5074021;28;20520;-83
2023/04/22 07:55:14;;;;;;;1.47;1.37;;;16.60;99.90;;;;;;5074146;28;20844;-85
2023/04/22 07:57:41;;;;;;;1.10;1.00;;;16.80;99.90;;;;;;5074731;28;20868;-84
2023/04/22 08:00:11;;;;;;;1.20;1.10;;;17.00;99.90;;;;;;5073954;28;20468;-85
2023/04/22 08:02:37;;;;;;;1.40;1.30;;;17.40;99.90;;;;;;5073912;28;20437;-85
2023/04/22 08:05:05;;;;;;;1.43;1.33;;;18.10;99.90;;;;;;5074063;28;20476;-85
2023/04/22 08:07:31;;;;;;;3.00;1.20;;;19.10;99.90;;;;;;5073989;28;20452;-85
2023/04/22 08:09:58;;;;;;;1.07;1.00;;;19.90;99.90;;;;;;5073584;28;20944;-84
2023/04/22 08:12:25;;;;;;;1.53;0.90;;;20.20;99.90;;;;;;5074088;28;20453;-85
2023/04/22 08:14:52;;;;;;;1.47;1.23;;;20.10;99.90;;;;;;5073852;28;20487;-85
2023/04/22 08:17:21;;;;;;;1.90;1.47;;;20.20;99.90;;;;;;5074219;28;20508;-84
2023/04/22 08:19:48;;;;;;;0.80;0.80;;;20.30;99.90;;;;;;5073927;28;20498;-84
2023/04/22 08:22:16;;;;;;;1.73;0.90;;;20.40;99.90;;;;;;5074002;28;20450;-84
2023/04/22 08:24:43;;;;;;;0.80;0.80;;;20.90;99.90;;;;;;5073930;28;20789;-84
2023/04/22 08:27:10;;;;;;;1.33;0.90;;;21.60;99.90;;;;;;5073614;28;20791;-85
2023/04/22 08:29:37;;;;;;;0.83;0.83;;;22.20;99.90;;;;;;5073549;28;20456;-84
2023/04/22 08:32:04;;;;;;;1.53;1.10;;;22.70;99.90;;;;;;5073200;28;20234;-85
2023/04/22 08:34:32;;;;;;;1.20;1.10;;;22.70;99.40;;;;;;5073515;28;20676;-85
2023/04/22 08:36:58;;;;;;;1.38;1.17;;;23.20;98.10;;;;;;5073492;28;20187;-85
2023/04/22 08:39:25;;;;;;;0.75;0.75;;;23.90;94.80;;;;;;5074248;28;20209;-85
2023/04/22 08:41:53;;;;;;;0.77;0.77;;;24.60;93.00;;;;;;5073360;28;20225;-84
2023/04/22 08:44:21;;;;;;;5.80;0.93;;;24.70;90.30;;;;;;5073170;28;20194;-85
2023/04/22 08:46:49;;;;;;;0.70;0.70;;;24.70;86.10;;;;;;5073321;28;20206;-85
2023/04/22 08:49:16;;;;;;;0.75;0.75;;;24.80;85.50;;;;;;5073048;28;20553;-84
2023/04/22 08:51:45;;;;;;;2.35;1.10;;;24.40;83.90;;;;;;5073167;28;20219;-84
2023/04/22 08:54:12;;;;;;;0.95;0.95;;;24.30;86.50;;;;;;5073936;28;20198;-84
2023/04/22 08:56:41;;;;;;;1.23;0.75;;;24.50;85.60;;;;;;5073358;28;20202;-84
2023/04/22 08:59:10;;;;;;;1.00;0.90;;;24.90;83.90;;;;;;5073275;28;20570;-84
2023/04/22 09:01:38;;;;;;;0.90;0.80;;;25.40;81.00;;;;;;5073030;28;20714;-85
2023/04/22 09:04:06;;;;;;;0.80;0.60;;;25.90;79.80;;;;;;5073574;28;20207;-84
2023/04/22 09:06:33;;;;;;;0.75;0.75;;;26.10;78.90;;;;;;5073644;28;20252;-84
2023/04/22 09:09:02;;;;;;;1.48;1.10;;;26.40;77.90;;;;;;5073242;28;20218;-84
2023/04/22 09:11:30;;;;;;;0.70;0.70;;;26.30;75.20;;;;;;5073092;28;20223;-84
2023/04/22 09:13:57;;;;;;;0.70;0.70;;;26.00;74.50;;;;;;5072943;28;20202;-85
2023/04/22 09:16:23;;;;;;;0.60;0.60;;;25.10;72.20;;;;;;5073471;28;20252;-84
2023/04/22 09:18:50;;;;;;;1.63;0.80;;;24.30;71.90;;;;;;5073149;28;20202;-84
2023/04/22 09:21:17;;;;;;;0.70;0.70;;;24.00;75.40;;;;;;5072931;28;20249;-84
2023/04/22 09:23:46;;;;;;;0.60;0.60;;;24.00;76.00;;;;;;5073036;28;20202;-84
2023/04/22 09:26:17;;;;;;;0.65;0.52;;;24.10;71.30;;;;;;5073054;28;20214;-84
2023/04/22 09:28:50;;;;;;;0.60;0.50;;;23.90;71.50;;;;;;5074009;28;20303;-85
2023/04/22 09:31:16;;;;;;;0.50;0.50;;;24.10;69.80;;;;;;5073066;28;20223;-84
2023/04/22 09:33:48;;;;;;;0.77;0.50;;;24.00;69.90;;;;;;5072634;28;20599;-85
2023/04/22 09:36:15;;;;;;;0.63;0.60;;;24.10;69.70;;;;;;5073018;28;20272;-84
2023/04/22 09:38:51;;;;;;;0.55;0.50;;;24.20;69.00;;;;;;5072760;28;20201;-84
2023/04/22 09:41:26;;;;;;;0.52;0.52;;;24.10;65.00;;;;;;5072846;28;20222;-85
2023/04/22 09:43:55;;;;;;;0.50;0.50;;;24.40;67.30;;;;;;5072518;28;20504;-84
2023/04/22 09:46:23;;;;;;;0.70;0.60;;;24.50;64.30;;;;;;5072602;28;20202;-84
2023/04/22 09:48:50;;;;;;;0.50;0.50;;;24.30;65.10;;;;;;5072529;28;20269;-84
2023/04/22 09:51:17;;;;;;;0.60;0.60;;;24.70;64.40;;;;;;5072676;28;20310;-85
2023/04/22 09:53:45;;;;;;;0.73;0.73;;;25.20;65.00;;;;;;5072386;28;20301;-85
2023/04/22 09:56:11;;;;;;;0.60;0.60;;;25.20;60.80;;;;;;5072305;28;20222;-85
2023/04/22 09:58:40;;;;;;;0.60;0.60;;;25.50;60.90;;;;;;5073075;28;20198;-84
2023/04/22 10:01:07;;;;;;;0.70;0.70;;;25.90;61.40;;;;;;5075816;28;20231;-85
2023/04/22 10:03:34;;;;;;;0.50;0.50;;;26.00;60.70;;;;;;5075949;28;20206;-85
2023/04/22 10:06:01;;;;;;;0.60;0.60;;;25.80;58.90;;;;;;5076275;28;20252;-84
2023/04/22 10:08:28;;;;;;;0.68;0.68;;;25.60;59.50;;;;;;5076817;28;20187;-85
2023/04/22 10:10:55;;;;;;;0.63;0.63;;;25.60;59.90;;;;;;5075990;28;20313;-85
2023/04/22 10:13:22;;;;;;;0.50;0.50;;;25.40;60.10;;;;;;5076133;28;20293;-85
2023/04/22 10:15:53;;;;;;;0.85;0.50;;;25.30;58.80;;;;;;5076015;28;20222;-84
2023/04/22 10:18:23;;;;;;;0.90;0.50;;;25.10;58.20;;;;;;5076039;28;20186;-85
2023/04/22 10:20:50;;;;;;;0.50;0.50;;;25.10;59.90;;;;;;5075975;28;20226;-85
2023/04/22 10:23:19;;;;;;;0.60;0.60;;;25.30;58.80;;;;;;5075796;28;20199;-85
2023/04/22 10:25:49;;;;;;;0.60;0.60;;;25.30;58.50;;;;;;5076157;28;20206;-85
2023/04/22 10:28:17;;;;;;;0.52;0.52;;;25.40;57.20;;;;;;5075663;28;20187;-84
2023/04/22 10:30:44;;;;;;;0.50;0.50;;;25.50;58.40;;;;;;5075567;28;20710;-83
2023/04/22 10:33:37;;;;;;;0.60;0.55;;;25.90;53.90;;;;;;5075638;28;20183;-84
2023/04/22 10:36:10;;;;;;;0.70;0.70;;;26.20;55.00;;;;;;5075754;28;20594;-85
2023/04/22 10:38:38;;;;;;;5.07;0.80;;;26.10;50.90;;;;;;5075830;28;20214;-84
2023/04/22 10:41:05;;;;;;;0.60;0.60;;;26.00;50.70;;;;;;5075910;28;20233;-85
2023/04/22 10:43:42;;;;;;;0.57;0.52;;;26.30;52.00;;;;;;5075735;28;20213;-88
2023/04/22 10:46:49;;;;;;;0.50;0.50;;;26.50;51.60;;;;;;5076494;28;20210;-84
2023/04/22 10:49:20;;;;;;;0.63;0.55;;;26.50;53.00;;;;;;5074910;28;20202;-85
2023/04/22 10:51:49;;;;;;;1.85;0.60;;;26.30;52.60;;;;;;5075685;28;20269;-85
2023/04/22 10:54:49;;;;;;;0.70;0.60;;;26.30;50.80;;;;;;5075350;28;20210;-84
2023/04/22 10:57:21;;;;;;;0.50;0.50;;;26.10;50.60;;;;;;5074972;28;20712;-85
2023/04/22 10:59:52;;;;;;;0.60;0.60;;;25.90;51.00;;;;;;5075295;28;20187;-85
2023/04/22 11:02:20;;;;;;;0.70;0.70;;;26.00;50.50;;;;;;5075079;28;20241;-85
2023/04/22 11:04:48;;;;;;;0.80;0.80;;;25.80;50.60;;;;;;5075277;28;20207;-84
2023/04/22 11:07:30;;;;;;;0.60;0.60;;;25.60;53.00;;;;;;5075564;28;20183;-84
2023/04/22 11:10:01;;;;;;;0.50;0.50;;;25.40;51.70;;;;;;5075313;28;20281;-84
2023/04/22 11:12:42;;;;;;;0.60;0.60;;;25.00;51.60;;;;;;5075125;28;20187;-84
2023/04/22 11:15:10;;;;;;;0.70;0.70;;;24.90;52.90;;;;;;5075050;28;20187;-84
2023/04/22 11:17:39;;;;;;;0.63;0.60;;;24.80;54.80;;;;;;5074771;28;20611;-84
2023/04/22 11:20:08;;;;;;;1.30;0.80;;;24.70;54.10;;;;;;5074827;28;20737;-84
2023/04/22 11:22:36;;;;;;;0.88;0.85;;;24.30;54.90;;;;;;5074963;28;20590;-84
2023/04/22 11:25:03;;;;;;;1.25;0.70;;;24.10;55.60;;;;;;5074903;28;20202;-84
2023/04/22 11:27:31;;;;;;;1.00;0.93;;;23.90;56.40;;;;;;5075321;28;20207;-85
2023/04/22 11:30:01;;;;;;;1.17;0.60;;;23.70;56.10;;;;;;5074781;28;20194;-84
2023/04/22 11:32:28;;;;;;;1.10;0.88;;;23.80;56.50;;;;;;5074718;28;20214;-84
2023/04/22 11:34:55;;;;;;;3.80;1.08;;;23.80;56.20;;;;;;5074416;28;20704;-84
2023/04/22 11:37:24;;;;;;;0.98;0.98;;;23.60;57.30;;;;;;5074629;28;20215;-84
2023/04/22 11:39:51;;;;;;;1.48;0.85;;;23.60;57.90;;;;;;5074595;28;20198;-84
2023/04/22 11:42:21;;;;;;;0.60;0.60;;;23.70;59.90;;;;;;5074560;28;20205;-84
2023/04/22 11:44:48;;;;;;;1.10;1.08;;;23.80;58.60;;;;;;5074610;28;20216;-84
2023/04/22 11:47:15;;;;;;;1.65;0.60;;;23.80;57.70;;;;;;5074130;28;20203;-85
2023/04/22 11:49:42;;;;;;;0.73;0.68;;;23.70;60.40;;;;;;5074665;28;20206;-85
2023/04/22 11:52:08;;;;;;;0.93;0.63;;;23.90;58.90;;;;;;5073815;28;20229;-85
2023/04/22 11:54:37;;;;;;;0.70;0.70;;;23.80;58.40;;;;;;5074087;28;20261;-85
2023/04/22 11:57:08;;;;;;;1.13;0.90;;;23.90;60.70;;;;;;5073743;28;20222;-85
2023/04/22 11:59:35;;;;;;;0.95;0.70;;;24.00;60.30;;;;;;5074328;28;20209;-85
2023/04/22 12:02:05;;;;;;;0.70;0.60;;;24.00;59.00;;;;;;5073576;28;20710;-84
2023/04/22 12:04:36;;;;;;;0.60;0.60;;;24.00;61.20;;;;;;5073989;28;20262;-85
2023/04/22 12:07:04;;;;;;;5.55;0.80;;;24.00;60.70;;;;;;5075450;28;20195;-85
2023/04/22 12:09:33;;;;;;;2.23;1.70;;;24.00;60.20;;;;;;5073655;28;20293;-85
2023/04/22 12:12:03;;;;;;;0.98;0.75;;;23.90;59.50;;;;;;5073887;28;20223;-85
2023/04/22 12:14:32;;;;;;;1.20;0.67;;;23.50;59.70;;;;;;5073412;28;20202;-85
2023/04/22 12:17:02;;;;;;;1.15;0.70;;;23.50;60.90;;;;;;5073665;28;20227;-85
2023/04/22 12:19:29;;;;;;;0.70;0.60;;;23.50;62.40;;;;;;5073646;28;20198;-84
2023/04/22 12:21:56;;;;;;;0.70;0.70;;;23.70;62.70;;;;;;5073278;28;20223;-85
2023/04/22 12:24:28;;;;;;;1.13;0.95;;;23.70;58.10;;;;;;5073513;28;20685;-85
2023/04/22 12:26:55;;;;;;;0.60;0.60;;;23.60;56.70;;;;;;5073864;28;20179;-85
2023/04/22 12:29:31;;;;;;;1.00;0.70;;;23.40;58.00;;;;;;5073680;28;20220;-85
2023/04/22 12:31:58;;;;;;;0.60;0.60;;;23.50;59.00;;;;;;5073897;28;20222;-84
2023/04/22 12:34:25;;;;;;;0.60;0.60;;;23.80;58.90;;;;;;5073622;28;20203;-84
2023/04/22 12:36:52;;;;;;;0.75;0.75;;;23.90;56.20;;;;;;5073275;28;20222;-84
2023/04/22 12:39:18;;;;;;;1.13;0.87;;;23.70;55.70;;;;;;5073622;28;20285;-84
2023/04/22 12:41:49;;;;;;;0.70;0.70;;;23.70;56.40;;;;;;5073226;28;20225;-83
2023/04/22 12:44:16;;;;;;;0.75;0.75;;;23.60;55.90;;;;;;5073579;28;20190;-83
2023/04/22 12:46:45;;;;;;;0.60;0.60;;;23.60;57.10;;;;;;5073497;28;20234;-83
2023/04/22 12:49:13;;;;;;;1.20;1.10;;;23.50;57.00;;;;;;5073490;28;20207;-83
2023/04/22 12:51:40;;;;;;;0.60;0.60;;;23.40;57.50;;;;;;5073047;28;20733;-83